Terminal Aerodrome Forecast
Issued by NWS Wakefield, VA

Current Version | Previous Version | Text Only | Print | Product List | Glossary On
Versions: 1 2 3 4 5 6 7 8 9 10 11 12 13 14 15 16 17
000
FTUS41 KAKQ 182300 RRA
TAFSBY
TAF
KSBY 182341Z 1900/1924 12005KT P6SM SCT015 OVC150
     FM190700 04004KT P6SM BKN100
     FM191400 03012KT P6SM BKN250=

USA.gov is the U.S. government's official web portal to all federal, state and local government web resources and services.